createdAt,value
2019-04-20T00:00:16.907Z,0
2019-04-20T00:01:41.182Z,0
2019-04-20T00:03:05.834Z,0
2019-04-20T00:04:41.055Z,0
2019-04-20T00:05:51.402Z,0
2019-04-20T00:07:06.493Z,0
2019-04-20T00:08:42.424Z,0
2019-04-20T00:10:26.208Z,0
2019-04-20T00:12:34.080Z,0
2019-04-20T00:14:30.734Z,0
2019-04-20T00:15:43.116Z,0
2019-04-20T00:16:55.149Z,0
2019-04-20T00:18:17.570Z,0
2019-04-20T00:19:59.367Z,0
2019-04-20T00:21:25.115Z,0
2019-04-20T00:23:01.658Z,0
2019-04-20T00:24:42.312Z,0
2019-04-20T00:27:31.137Z,0
2019-04-20T00:30:38.411Z,0
2019-04-20T00:33:09.271Z,0
2019-04-20T00:34:49.368Z,0
2019-04-20T00:36:03.153Z,0
2019-04-20T00:37:17.437Z,0
2019-04-20T00:38:49.995Z,0
2019-04-20T00:40:06.077Z,0
2019-04-20T00:41:29.589Z,0
2019-04-20T00:43:03.010Z,0
2019-04-20T00:44:45.547Z,0
2019-04-20T00:47:04.196Z,0
2019-04-20T00:49:30.300Z,0
2019-04-20T00:52:39.825Z,0
2019-04-20T00:54:09.413Z,0
2019-04-20T00:55:20.898Z,0
2019-04-20T00:56:33.325Z,0
2019-04-20T00:58:31.437Z,0
2019-04-20T01:01:30.657Z,0
2019-04-20T01:04:23.670Z,0
2019-04-20T01:07:23.749Z,0
2019-04-20T01:08:38.412Z,0
2019-04-20T01:09:50.130Z,0
2019-04-20T01:11:10.142Z,0
2019-04-20T01:12:42.707Z,0
2019-04-20T01:14:19.049Z,0
2019-04-20T01:16:33.133Z,0
2019-04-20T01:17:48.937Z,0
2019-04-20T01:18:58.902Z,0
2019-04-20T01:20:08.586Z,0
2019-04-20T01:21:36.789Z,0
2019-04-20T01:23:24.154Z,0
2019-04-20T01:25:00.101Z,0
2019-04-20T01:26:29.736Z,0
2019-04-20T01:29:05.982Z,0
2019-04-20T01:31:14.577Z,0
2019-04-20T01:33:45.971Z,0
2019-04-20T01:36:45.583Z,0
2019-04-20T01:39:28.232Z,0
2019-04-20T01:40:44.582Z,0
2019-04-20T01:41:56.396Z,0
2019-04-20T01:43:08.162Z,0
2019-04-20T01:44:39.086Z,0
2019-04-20T01:46:20.477Z,0
2019-04-20T01:48:01.845Z,0
2019-04-20T01:49:38.917Z,0
2019-04-20T01:51:35.081Z,0
2019-04-20T01:54:15.713Z,0
2019-04-20T01:56:57.915Z,0
2019-04-20T01:59:51.171Z,0
2019-04-20T02:01:36.115Z,0
2019-04-20T02:03:11.427Z,0
2019-04-20T02:04:52.469Z,0
2019-04-20T02:06:28.255Z,0
2019-04-20T02:08:00.281Z,0
2019-04-20T02:09:43.031Z,0
2019-04-20T02:11:27.402Z,0
2019-04-20T02:13:04.671Z,0
2019-04-20T02:14:52.126Z,0
2019-04-20T02:16:47.315Z,0
2019-04-20T02:19:26.194Z,0
2019-04-20T02:22:15.548Z,0
2019-04-20T02:24:09.080Z,0
2019-04-20T02:25:21.073Z,0
2019-04-20T02:26:32.669Z,0
2019-04-20T02:29:04.642Z,0
2019-04-20T02:33:41.794Z,0
2019-04-20T02:38:48.573Z,0
2019-04-20T02:43:14.574Z,0
2019-04-20T02:47:45.299Z,0
2019-04-20T02:56:21.657Z,0
2019-04-20T03:00:23.487Z,0
2019-04-20T03:03:09.843Z,0
2019-04-20T03:05:29.198Z,0
2019-04-20T03:08:21.980Z,0
2019-04-20T03:12:23.214Z,0
2019-04-20T03:15:21.663Z,0
2019-04-20T03:18:39.511Z,0
2019-04-20T03:21:56.732Z,0
2019-04-20T03:25:42.542Z,0
2019-04-20T03:28:56.511Z,0
2019-04-20T03:34:47.261Z,0
2019-04-20T03:38:40.940Z,0
2019-04-20T03:41:13.794Z,0
2019-04-20T03:42:26.999Z,0
2019-04-20T03:43:40.470Z,0
2019-04-20T03:45:23.044Z,0
2019-04-20T03:47:13.231Z,0
2019-04-20T03:50:23.856Z,0
2019-04-20T03:53:43.137Z,0
2019-04-20T03:56:48.986Z,5
2019-04-20T03:59:54.463Z,5
2019-04-20T04:04:09.082Z,10
2019-04-20T04:06:38.932Z,15
2019-04-20T04:08:57.406Z,15
2019-04-20T04:11:48.168Z,20
2019-04-20T04:13:05.049Z,20
2019-04-20T04:14:18.049Z,25
2019-04-20T04:15:28.044Z,25
2019-04-20T04:17:06.136Z,30
2019-04-20T04:19:01.295Z,30
2019-04-20T04:20:59.241Z,35
2019-04-20T04:23:58.536Z,40
2019-04-20T04:26:42.577Z,45
2019-04-20T04:29:50.435Z,50
2019-04-20T04:33:55.463Z,55
2019-04-20T04:36:33.738Z,60
2019-04-20T04:39:58.587Z,65
2019-04-20T04:43:25.252Z,70
2019-04-20T04:45:22.171Z,70
2019-04-20T04:46:54.592Z,75
2019-04-20T04:48:31.918Z,75
2019-04-20T04:50:21.389Z,80
2019-04-20T04:52:19.851Z,80
2019-04-20T04:54:39.937Z,85
2019-04-20T04:56:26.743Z,85
2019-04-20T04:57:39.039Z,90
2019-04-20T04:58:52.000Z,90
2019-04-20T05:00:05.536Z,90
2019-04-20T05:01:37.640Z,95
2019-04-20T05:03:44.523Z,95
2019-04-20T05:06:53.092Z,100
2019-04-20T05:08:54.771Z,100
2019-04-20T05:10:09.694Z,100
2019-04-20T05:11:21.853Z,105
2019-04-20T05:12:44.460Z,105
2019-04-20T05:14:37.990Z,105
2019-04-20T05:17:26.033Z,110
2019-04-20T05:21:04.157Z,115
2019-04-20T05:23:56.428Z,115
2019-04-20T05:27:24.489Z,120
2019-04-20T05:29:30.352Z,120
2019-04-20T05:31:09.663Z,120
2019-04-20T05:33:07.951Z,125
2019-04-20T05:36:27.863Z,125
2019-04-20T05:40:15.898Z,130
2019-04-20T05:43:31.455Z,130
2019-04-20T05:46:26.044Z,135
2019-04-20T05:49:34.225Z,135
2019-04-20T05:53:07.079Z,140
2019-04-20T05:56:30.326Z,140
2019-04-20T06:00:01.437Z,145
2019-04-20T06:03:25.711Z,145
2019-04-20T06:06:59.443Z,150
2019-04-20T06:10:54.879Z,150
2019-04-20T06:13:56.822Z,155
2019-04-20T06:17:08.655Z,155
2019-04-20T06:20:40.926Z,160
2019-04-20T06:24:31.728Z,160
2019-04-20T06:28:12.268Z,160
2019-04-20T06:30:55.857Z,165
2019-04-20T06:34:41.162Z,165
2019-04-20T06:38:48.014Z,175
2019-04-20T06:42:47.960Z,175
2019-04-20T06:46:14.644Z,185
2019-04-20T06:49:50.244Z,195
2019-04-20T06:53:15.854Z,200
2019-04-20T06:56:40.613Z,205
2019-04-20T07:00:15.216Z,325
2019-04-20T07:04:20.934Z,225
2019-04-20T07:08:20.247Z,205
2019-04-20T07:11:56.435Z,205
2019-04-20T07:14:14.719Z,205
2019-04-20T07:17:45.175Z,205
2019-04-20T07:20:55.208Z,210
2019-04-20T07:25:18.552Z,210
2019-04-20T07:28:38.021Z,210
2019-04-20T07:32:01.332Z,210
2019-04-20T07:35:24.399Z,210
2019-04-20T07:39:21.015Z,215
2019-04-20T07:46:20.418Z,220
2019-04-20T07:49:45.527Z,225
2019-04-20T07:51:46.007Z,225
2019-04-20T07:54:58.275Z,230
2019-04-20T07:58:10.672Z,225
2019-04-20T08:01:28.064Z,235
2019-04-20T08:04:54.886Z,240
2019-04-20T08:06:55.551Z,240
2019-04-20T08:09:34.810Z,245
2019-04-20T08:13:09.092Z,255
2019-04-20T08:17:08.955Z,250
2019-04-20T08:20:19.842Z,250
2019-04-20T08:23:48.692Z,255
2019-04-20T08:26:13.889Z,260
2019-04-20T08:27:31.622Z,260
2019-04-20T08:29:42.251Z,260
2019-04-20T08:32:32.319Z,260
2019-04-20T08:36:10.574Z,265
2019-04-20T08:40:11.798Z,285
2019-04-20T08:48:10.874Z,355
2019-04-20T08:51:41.256Z,370
2019-04-20T08:54:57.572Z,380
2019-04-20T08:57:01.317Z,385
2019-04-20T08:58:11.840Z,360
2019-04-20T08:59:21.656Z,365
2019-04-20T09:01:08.399Z,345
2019-04-20T09:02:28.225Z,330
2019-04-20T09:04:36.990Z,330
2019-04-20T09:07:03.796Z,340
2019-04-20T09:09:37.420Z,355
2019-04-20T09:12:44.733Z,390
2019-04-20T09:14:14.639Z,395
2019-04-20T09:15:26.107Z,395
2019-04-20T09:17:23.994Z,410
2019-04-20T09:19:26.975Z,425
2019-04-20T09:21:45.520Z,435
2019-04-20T09:24:34.367Z,435
2019-04-20T09:27:34.626Z,450
2019-04-20T09:30:02.986Z,455
2019-04-20T09:32:48.286Z,455
2019-04-20T09:35:53.026Z,480
2019-04-20T09:38:47.681Z,670
2019-04-20T09:41:46.449Z,720
2019-04-20T09:43:02.760Z,685
2019-04-20T09:44:15.956Z,660
2019-04-20T09:46:04.973Z,615
2019-04-20T09:47:46.767Z,610
2019-04-20T09:49:54.797Z,630
2019-04-20T09:52:51.169Z,640
2019-04-20T09:55:36.222Z,650
2019-04-20T09:58:24.524Z,730
2019-04-20T10:01:09.415Z,765
2019-04-20T10:02:46.347Z,770
2019-04-20T10:03:57.585Z,795
2019-04-20T10:05:07.759Z,795
2019-04-20T10:06:35.599Z,800
2019-04-20T10:08:06.692Z,860
2019-04-20T10:09:34.310Z,845
2019-04-20T10:10:56.862Z,815
2019-04-20T10:12:08.502Z,815
2019-04-20T10:13:21.455Z,905
2019-04-20T10:14:35.085Z,920
2019-04-20T10:15:47.760Z,910
2019-04-20T10:17:01.996Z,900
2019-04-20T10:18:14.294Z,920
2019-04-20T10:19:45.124Z,905
2019-04-20T10:20:58.281Z,910
2019-04-20T10:22:10.987Z,920
2019-04-20T10:23:23.286Z,1020
2019-04-20T10:24:36.560Z,1035
2019-04-20T10:25:50.817Z,1060
2019-04-20T10:27:03.160Z,1090
2019-04-20T10:28:14.294Z,1105
2019-04-20T10:29:27.810Z,1120
2019-04-20T10:30:40.769Z,1100
2019-04-20T10:32:17.831Z,1145
2019-04-20T10:33:31.317Z,1170
2019-04-20T10:34:44.272Z,1200
2019-04-20T10:35:57.404Z,1205
2019-04-20T10:37:09.320Z,1225
2019-04-20T10:38:21.394Z,1240
2019-04-20T10:39:34.246Z,1270
2019-04-20T10:41:48.875Z,1260
2019-04-20T10:43:07.948Z,1265
2019-04-20T10:44:19.293Z,1255
2019-04-20T10:45:32.961Z,1265
2019-04-20T10:46:43.427Z,1270
2019-04-20T10:47:56.887Z,1250
2019-04-20T10:49:17.864Z,1100
2019-04-20T10:50:29.596Z,1255
2019-04-20T10:51:41.769Z,1255
2019-04-20T10:52:53.978Z,1285
2019-04-20T10:54:06.955Z,1280
2019-04-20T10:55:18.941Z,1315
2019-04-20T10:56:31.646Z,1305
2019-04-20T10:57:45.777Z,1235
2019-04-20T10:58:58.258Z,1240
2019-04-20T11:00:10.564Z,1190
2019-04-20T11:01:22.400Z,1220
2019-04-20T11:02:35.125Z,1315
2019-04-20T11:03:47.468Z,1450
2019-04-20T11:04:59.458Z,1490
2019-04-20T11:06:11.319Z,1525
2019-04-20T11:07:23.434Z,1580
2019-04-20T11:08:35.440Z,1695
2019-04-20T11:09:47.544Z,1610
2019-04-20T11:11:32.312Z,1595
2019-04-20T11:12:46.654Z,1675
2019-04-20T11:14:14.421Z,1615
2019-04-20T11:15:30.836Z,1575
2019-04-20T11:16:42.335Z,1510
2019-04-20T11:17:55.286Z,1395
2019-04-20T11:19:07.300Z,1415
2019-04-20T11:20:17.651Z,1260
2019-04-20T11:21:32.857Z,1105
2019-04-20T11:22:46.713Z,1285
2019-04-20T11:23:58.310Z,1400
2019-04-20T11:25:10.630Z,1395
2019-04-20T11:26:22.614Z,1330
2019-04-20T11:27:34.158Z,1365
2019-04-20T11:28:46.531Z,1530
2019-04-20T11:29:58.438Z,1585
2019-04-20T11:31:10.432Z,1395
2019-04-20T11:32:26.139Z,1490
2019-04-20T11:33:38.599Z,1675
2019-04-20T11:34:56.364Z,1520
2019-04-20T11:36:09.330Z,1655
2019-04-20T11:37:21.929Z,1690
2019-04-20T11:38:33.267Z,1730
2019-04-20T11:39:45.394Z,1805
2019-04-20T11:41:30.815Z,1925
2019-04-20T11:42:44.008Z,1900
2019-04-20T11:43:56.121Z,1745
2019-04-20T11:45:09.119Z,1825
2019-04-20T11:46:20.978Z,1850
2019-04-20T11:47:33.972Z,1935
2019-04-20T11:48:45.203Z,1920
2019-04-20T11:49:57.908Z,1940
2019-04-20T11:51:09.923Z,1920
2019-04-20T11:52:31.878Z,2075
2019-04-20T11:53:48.275Z,2050
2019-04-20T11:55:00.551Z,2070
2019-04-20T11:56:40.136Z,1955
2019-04-20T11:57:51.931Z,2070
2019-04-20T11:59:05.409Z,2095
2019-04-20T12:00:17.438Z,2185
2019-04-20T12:02:03.657Z,2035
2019-04-20T12:04:18.534Z,2105
2019-04-20T12:06:06.970Z,2060
2019-04-20T12:07:19.813Z,2070
2019-04-20T12:08:32.376Z,2075
2019-04-20T12:09:47.282Z,2110
2019-04-20T12:11:55.707Z,2015
2019-04-20T12:13:14.520Z,2075
2019-04-20T12:14:28.397Z,2130
2019-04-20T12:15:45.399Z,2030
2019-04-20T12:16:55.815Z,2010
2019-04-20T12:18:07.748Z,2125
2019-04-20T12:19:20.685Z,2130
2019-04-20T12:20:32.466Z,2145
2019-04-20T12:21:45.590Z,2150
2019-04-20T12:22:58.117Z,2070
2019-04-20T12:24:10.060Z,2045
2019-04-20T12:25:23.686Z,2030
2019-04-20T12:26:36.497Z,1995
2019-04-20T12:28:07.688Z,2085
2019-04-20T12:29:19.512Z,2155
2019-04-20T12:30:33.159Z,2130
2019-04-20T12:31:55.138Z,2230
2019-04-20T12:33:15.497Z,2420
2019-04-20T12:34:27.345Z,2330
2019-04-20T12:35:40.673Z,2210
2019-04-20T12:36:53.199Z,2190
2019-04-20T12:38:05.447Z,2215
2019-04-20T12:39:16.933Z,2165
2019-04-20T12:40:28.254Z,2245
2019-04-20T12:42:09.335Z,2280
2019-04-20T12:43:23.598Z,2450
2019-04-20T12:44:35.474Z,2455
2019-04-20T12:45:47.676Z,2475
2019-04-20T12:46:59.731Z,2305
2019-04-20T12:48:11.417Z,2275
2019-04-20T12:49:23.389Z,2295
2019-04-20T12:50:35.278Z,2405
2019-04-20T12:52:12.327Z,2385
2019-04-20T12:53:26.412Z,2300
2019-04-20T12:54:39.851Z,2355
2019-04-20T12:55:52.972Z,2350
2019-04-20T12:57:04.705Z,1945
2019-04-20T12:58:16.967Z,1780
2019-04-20T12:59:29.540Z,1710
2019-04-20T13:00:41.793Z,1490
2019-04-20T13:01:55.101Z,1470
2019-04-20T13:03:07.704Z,1620
2019-04-20T13:04:20.526Z,1735
2019-04-20T13:05:34.224Z,1495
2019-04-20T13:06:51.946Z,1790
2019-04-20T13:08:28.346Z,2035
2019-04-20T13:09:44.287Z,1965
2019-04-20T13:10:55.453Z,1985
2019-04-20T13:12:19.811Z,1910
2019-04-20T13:13:30.720Z,1845
2019-04-20T13:14:44.289Z,1855
2019-04-20T13:15:56.224Z,1870
2019-04-20T13:17:08.242Z,1980
2019-04-20T13:18:21.162Z,2045
2019-04-20T13:19:33.009Z,2075
2019-04-20T13:20:45.577Z,1995
2019-04-20T13:21:58.862Z,1935
2019-04-20T13:23:17.114Z,1880
2019-04-20T13:24:29.543Z,1630
2019-04-20T13:25:43.026Z,2095
2019-04-20T13:26:55.425Z,2100
2019-04-20T13:28:07.472Z,2330
2019-04-20T13:29:19.766Z,2415
2019-04-20T13:30:32.429Z,2520
2019-04-20T13:31:44.772Z,2535
2019-04-20T13:32:57.281Z,2415
2019-04-20T13:34:10.259Z,2430
2019-04-20T13:35:23.099Z,2375
2019-04-20T13:36:34.923Z,2470
2019-04-20T13:37:50.437Z,2540
2019-04-20T13:39:03.956Z,2495
2019-04-20T13:40:15.880Z,2535
2019-04-20T13:41:30.090Z,2500
2019-04-20T13:42:43.926Z,2480
2019-04-20T13:44:00.992Z,2345
2019-04-20T13:45:12.864Z,2270
2019-04-20T13:46:24.800Z,2380
2019-04-20T13:47:36.711Z,2335
2019-04-20T13:48:47.285Z,2225
2019-04-20T13:50:01.149Z,2255
2019-04-20T13:51:12.799Z,2330
2019-04-20T13:52:26.483Z,2485
2019-04-20T13:53:38.955Z,2430
2019-04-20T13:54:52.622Z,2450
2019-04-20T13:56:07.582Z,2570
2019-04-20T13:57:19.731Z,2570
2019-04-20T13:58:32.238Z,2500
2019-04-20T13:59:46.480Z,2355
2019-04-20T14:01:05.103Z,2245
2019-04-20T14:02:17.873Z,2370
2019-04-20T14:03:30.173Z,2550
2019-04-20T14:04:41.655Z,2515
2019-04-20T14:05:53.618Z,2620
2019-04-20T14:07:06.495Z,2535
2019-04-20T14:08:18.269Z,2480
2019-04-20T14:09:30.373Z,2465
2019-04-20T14:10:42.349Z,2370
2019-04-20T14:11:54.269Z,2470
2019-04-20T14:13:35.160Z,2455
2019-04-20T14:14:49.356Z,2410
2019-04-20T14:16:01.298Z,2365
2019-04-20T14:17:13.244Z,2355
2019-04-20T14:18:25.317Z,2375
2019-04-20T14:19:37.272Z,2450
2019-04-20T14:20:50.305Z,2425
2019-04-20T14:22:02.287Z,2475
2019-04-20T14:23:15.029Z,2475
2019-04-20T14:24:27.218Z,2450
2019-04-20T14:25:39.173Z,2515
2019-04-20T14:26:53.325Z,2595
2019-04-20T14:28:06.886Z,2420
2019-04-20T14:29:18.610Z,2255
2019-04-20T14:30:29.386Z,2295
2019-04-20T14:31:40.006Z,2280
2019-04-20T14:32:52.941Z,2225
2019-04-20T14:34:05.114Z,2275
2019-04-20T14:35:17.044Z,2155
2019-04-20T14:36:29.166Z,1995
2019-04-20T14:37:41.881Z,1915
2019-04-20T14:38:58.380Z,2065
2019-04-20T14:40:10.553Z,2190
2019-04-20T14:41:22.261Z,2335
2019-04-20T14:43:00.383Z,2285
2019-04-20T14:44:13.934Z,2170
2019-04-20T14:45:26.785Z,2190
2019-04-20T14:46:40.214Z,2200
2019-04-20T14:47:52.320Z,2280
2019-04-20T14:49:05.299Z,2305
2019-04-20T14:50:17.829Z,2260
2019-04-20T14:51:31.669Z,2320
2019-04-20T14:52:44.390Z,2105
2019-04-20T14:53:56.037Z,1705
2019-04-20T14:55:08.264Z,2070
2019-04-20T14:56:20.199Z,2215
2019-04-20T14:57:32.267Z,2145
2019-04-20T14:58:49.627Z,2135
2019-04-20T15:00:01.412Z,2235
2019-04-20T15:01:12.291Z,2230
2019-04-20T15:02:24.007Z,2180
2019-04-20T15:03:40.782Z,2135
2019-04-20T15:04:55.214Z,2130
2019-04-20T15:06:05.782Z,2100
2019-04-20T15:07:18.354Z,2060
2019-04-20T15:08:30.371Z,2125
2019-04-20T15:09:47.027Z,2230
2019-04-20T15:11:00.882Z,2020
2019-04-20T15:12:13.237Z,1960
2019-04-20T15:13:26.637Z,1960
2019-04-20T15:14:36.931Z,1990
2019-04-20T15:15:49.074Z,2005
2019-04-20T15:17:02.449Z,1970
2019-04-20T15:18:15.451Z,1835
2019-04-20T15:19:25.728Z,1950
2019-04-20T15:20:37.918Z,2165
2019-04-20T15:21:51.090Z,2065
2019-04-20T15:23:01.806Z,2125
2019-04-20T15:24:15.371Z,2095
2019-04-20T15:25:25.834Z,2080
2019-04-20T15:26:36.728Z,2055
2019-04-20T15:27:54.370Z,2045
2019-04-20T15:29:06.241Z,1890
2019-04-20T15:30:16.707Z,1810
2019-04-20T15:31:29.844Z,1915
2019-04-20T15:32:42.971Z,1885
2019-04-20T15:33:53.406Z,1905
2019-04-20T15:35:06.963Z,1940
2019-04-20T15:36:18.345Z,1970
2019-04-20T15:37:31.430Z,1875
2019-04-20T15:38:43.553Z,1475
2019-04-20T15:39:55.386Z,1205
2019-04-20T15:41:12.973Z,1735
2019-04-20T15:42:25.960Z,1825
2019-04-20T15:43:39.149Z,1830
2019-04-20T15:44:51.316Z,1865
2019-04-20T15:46:03.667Z,2010
2019-04-20T15:47:15.432Z,1960
2019-04-20T15:48:28.447Z,1885
2019-04-20T15:49:41.697Z,1820
2019-04-20T15:50:55.987Z,1865
2019-04-20T15:52:12.248Z,1800
2019-04-20T15:53:29.392Z,1760
2019-04-20T15:54:41.190Z,1775
2019-04-20T15:55:59.611Z,1730
2019-04-20T15:57:33.102Z,1715
2019-04-20T15:58:46.690Z,1715
2019-04-20T15:59:58.659Z,1695
2019-04-20T16:01:12.158Z,1715
2019-04-20T16:02:23.542Z,1740
2019-04-20T16:03:35.461Z,1645
2019-04-20T16:04:56.362Z,1605
2019-04-20T16:06:09.297Z,1605
2019-04-20T16:07:21.611Z,1605
2019-04-20T16:08:36.214Z,1580
2019-04-20T16:09:50.449Z,1595
2019-04-20T16:11:04.856Z,1570
2019-04-20T16:12:18.491Z,1525
2019-04-20T16:13:57.679Z,1525
2019-04-20T16:15:11.131Z,1555
2019-04-20T16:16:25.944Z,1495
2019-04-20T16:17:58.821Z,1425
2019-04-20T16:19:55.031Z,1430
2019-04-20T16:21:33.799Z,1385
2019-04-20T16:22:49.088Z,1365
2019-04-20T16:24:01.692Z,1370
2019-04-20T16:25:14.337Z,1360
2019-04-20T16:26:26.287Z,1425
2019-04-20T16:27:41.540Z,1405
2019-04-20T16:28:53.443Z,1325
2019-04-20T16:30:05.480Z,1280
2019-04-20T16:31:24.399Z,1230
2019-04-20T16:32:36.440Z,1240
2019-04-20T16:33:47.383Z,1220
2019-04-20T16:35:02.607Z,1230
2019-04-20T16:36:14.422Z,1260
2019-04-20T16:37:26.364Z,1265
2019-04-20T16:38:41.724Z,1220
2019-04-20T16:39:55.104Z,1230
2019-04-20T16:41:08.328Z,1215
2019-04-20T16:42:20.545Z,1205
2019-04-20T16:43:51.611Z,1165
2019-04-20T16:45:05.643Z,1120
2019-04-20T16:46:23.537Z,1135
2019-04-20T16:47:36.982Z,1115
2019-04-20T16:48:49.011Z,1060
2019-04-20T16:50:01.570Z,1060
2019-04-20T16:51:13.746Z,1035
2019-04-20T16:52:25.653Z,1025
2019-04-20T16:53:39.404Z,985
2019-04-20T16:54:50.980Z,1000
2019-04-20T16:56:04.084Z,985
2019-04-20T16:57:21.885Z,990
2019-04-20T16:58:33.912Z,965
2019-04-20T17:00:05.327Z,930
2019-04-20T17:01:17.145Z,925
2019-04-20T17:02:32.453Z,895
2019-04-20T17:04:22.501Z,840
2019-04-20T17:05:34.921Z,875
2019-04-20T17:06:47.702Z,820
2019-04-20T17:08:00.653Z,800
2019-04-20T17:09:15.657Z,730
2019-04-20T17:10:29.025Z,720
2019-04-20T17:11:41.868Z,720
2019-04-20T17:12:53.921Z,710
2019-04-20T17:14:12.883Z,670
2019-04-20T17:15:25.436Z,690
2019-04-20T17:16:37.528Z,645
2019-04-20T17:17:53.231Z,610
2019-04-20T17:19:06.200Z,600
2019-04-20T17:20:19.676Z,570
2019-04-20T17:21:40.680Z,540
2019-04-20T17:22:54.178Z,505
2019-04-20T17:24:07.176Z,410
2019-04-20T17:25:19.702Z,390
2019-04-20T17:26:32.714Z,465
2019-04-20T17:27:44.695Z,440
2019-04-20T17:29:01.707Z,425
2019-04-20T17:30:21.868Z,405
2019-04-20T17:31:35.389Z,380
2019-04-20T17:32:47.954Z,350
2019-04-20T17:35:17.590Z,315
2019-04-20T17:36:44.767Z,295
2019-04-20T17:38:01.366Z,270
2019-04-20T17:40:39.486Z,250
2019-04-20T17:43:14.278Z,210
2019-04-20T17:45:28.130Z,120
2019-04-20T17:48:17.187Z,70
2019-04-20T17:51:10.701Z,60
2019-04-20T17:53:50.737Z,55
2019-04-20T17:55:03.723Z,70
2019-04-20T17:56:18.033Z,90
2019-04-20T17:57:31.433Z,75
2019-04-20T17:58:50.095Z,55
2019-04-20T18:00:21.052Z,35
2019-04-20T18:02:58.426Z,35
2019-04-20T18:06:15.756Z,25
2019-04-20T18:09:18.339Z,20
2019-04-20T18:11:25.526Z,15
2019-04-20T18:13:20.044Z,15
2019-04-20T18:16:00.774Z,10
2019-04-20T18:18:54.955Z,10
2019-04-20T18:20:12.615Z,5
2019-04-20T18:21:24.408Z,5
2019-04-20T18:22:43.948Z,5
2019-04-20T18:24:05.116Z,5
2019-04-20T18:27:27.435Z,0
2019-04-20T18:30:29.277Z,0
2019-04-20T18:31:44.234Z,0
2019-04-20T18:32:56.209Z,0
2019-04-20T18:34:31.899Z,0
2019-04-20T18:35:54.662Z,0
2019-04-20T18:37:25.101Z,0
2019-04-20T18:39:12.153Z,0
2019-04-20T18:41:18.280Z,0
2019-04-20T18:43:08.079Z,0
2019-04-20T18:45:15.823Z,0
2019-04-20T18:48:37.492Z,0
2019-04-20T18:50:40.697Z,0
2019-04-20T18:51:55.543Z,0
2019-04-20T18:53:14.532Z,0
2019-04-20T18:54:53.380Z,0
2019-04-20T18:56:16.845Z,0
2019-04-20T18:57:44.617Z,0
2019-04-20T18:58:56.616Z,0
2019-04-20T19:00:26.597Z,0
2019-04-20T19:01:52.906Z,0
2019-04-20T19:03:39.200Z,0
2019-04-20T19:04:53.590Z,0
2019-04-20T19:06:11.034Z,0
2019-04-20T19:07:26.047Z,0
2019-04-20T19:08:59.043Z,0
2019-04-20T19:10:43.648Z,0
2019-04-20T19:12:17.055Z,0
2019-04-20T19:13:51.350Z,0
2019-04-20T19:16:27.419Z,0
2019-04-20T19:19:03.675Z,0
2019-04-20T19:20:23.308Z,0
2019-04-20T19:21:38.122Z,0
2019-04-20T19:22:52.495Z,0
2019-04-20T19:24:31.295Z,0
2019-04-20T19:25:54.344Z,0
2019-04-20T19:27:46.965Z,0
2019-04-20T19:29:45.938Z,0
2019-04-20T19:32:35.622Z,0
2019-04-20T19:35:12.242Z,0
2019-04-20T19:37:25.892Z,0
2019-04-20T19:40:04.381Z,0
2019-04-20T19:42:34.529Z,0
2019-04-20T19:45:08.685Z,0
2019-04-20T19:48:21.918Z,0
2019-04-20T19:51:17.184Z,0
2019-04-20T19:54:46.359Z,0
2019-04-20T19:57:30.849Z,0
2019-04-20T19:59:46.202Z,0
2019-04-20T20:01:09.355Z,0
2019-04-20T20:02:21.405Z,0
2019-04-20T20:03:33.320Z,0
2019-04-20T20:05:13.104Z,0
2019-04-20T20:07:03.917Z,0
2019-04-20T20:08:42.214Z,0
2019-04-20T20:10:16.559Z,0
2019-04-20T20:11:51.484Z,0
2019-04-20T20:13:15.602Z,0
2019-04-20T20:14:53.637Z,0
2019-04-20T20:17:13.684Z,0
2019-04-20T20:19:54.092Z,0
2019-04-20T20:22:31.910Z,0
2019-04-20T20:23:44.241Z,0
2019-04-20T20:24:57.326Z,0
2019-04-20T20:26:44.197Z,0
2019-04-20T20:28:55.060Z,0
2019-04-20T20:31:16.712Z,0
2019-04-20T20:34:12.784Z,0
2019-04-20T20:36:12.461Z,0
2019-04-20T20:38:18.952Z,0
2019-04-20T20:40:15.704Z,0
2019-04-20T20:42:32.835Z,0
2019-04-20T20:44:52.242Z,0
2019-04-20T20:47:12.559Z,0
2019-04-20T20:50:25.415Z,0
2019-04-20T20:53:12.354Z,0
2019-04-20T20:55:36.751Z,0
2019-04-20T20:57:37.836Z,0
2019-04-20T20:59:57.275Z,0
2019-04-20T21:01:51.670Z,0
2019-04-20T21:03:42.489Z,0
2019-04-20T21:04:55.993Z,0
2019-04-20T21:06:09.563Z,0
2019-04-20T21:07:22.477Z,0
2019-04-20T21:08:48.633Z,0
2019-04-20T21:10:04.167Z,0
2019-04-20T21:11:38.411Z,0
2019-04-20T21:13:14.172Z,0
2019-04-20T21:14:47.186Z,0
2019-04-20T21:16:33.304Z,0
2019-04-20T21:19:20.967Z,0
2019-04-20T21:21:59.730Z,0
2019-04-20T21:24:08.888Z,0
2019-04-20T21:25:40.715Z,0
2019-04-20T21:26:56.013Z,0
2019-04-20T21:28:12.963Z,0
2019-04-20T21:29:53.250Z,0
2019-04-20T21:31:32.726Z,0
2019-04-20T21:33:07.751Z,0
2019-04-20T21:34:31.497Z,0
2019-04-20T21:35:58.617Z,0
2019-04-20T21:37:30.663Z,0
2019-04-20T21:38:53.779Z,0
2019-04-20T21:40:44.737Z,0
2019-04-20T21:42:26.685Z,0
2019-04-20T21:43:51.866Z,0
2019-04-20T21:45:39.355Z,0
2019-04-20T21:47:07.170Z,0
2019-04-20T21:49:45.581Z,0
2019-04-20T21:52:03.459Z,0
2019-04-20T21:53:40.646Z,0
2019-04-20T21:54:54.406Z,0
2019-04-20T21:56:06.248Z,0
2019-04-20T21:57:24.529Z,0
2019-04-20T21:59:14.094Z,0
2019-04-20T22:01:22.044Z,0
2019-04-20T22:03:10.998Z,0
2019-04-20T22:04:25.504Z,0
2019-04-20T22:05:38.117Z,0
2019-04-20T22:06:50.114Z,0
2019-04-20T22:08:19.679Z,0
2019-04-20T22:09:55.305Z,0
2019-04-20T22:11:08.537Z,0
2019-04-20T22:12:20.741Z,0
2019-04-20T22:13:53.203Z,0
2019-04-20T22:15:46.470Z,0
2019-04-20T22:17:09.697Z,0
2019-04-20T22:18:46.299Z,0
2019-04-20T22:21:09.250Z,0
2019-04-20T22:23:54.217Z,0
2019-04-20T22:26:41.372Z,0
2019-04-20T22:28:05.646Z,0
2019-04-20T22:29:20.204Z,0
2019-04-20T22:30:33.450Z,0
2019-04-20T22:32:00.354Z,0
2019-04-20T22:33:29.758Z,0
2019-04-20T22:35:01.269Z,0
2019-04-20T22:36:24.679Z,0
2019-04-20T22:37:45.595Z,0
2019-04-20T22:39:11.631Z,0
2019-04-20T22:40:41.048Z,0
2019-04-20T22:42:16.403Z,0
2019-04-20T22:43:46.455Z,0
2019-04-20T22:45:21.142Z,0
2019-04-20T22:46:49.980Z,0
2019-04-20T22:48:23.005Z,0
2019-04-20T22:51:25.688Z,0
2019-04-20T22:53:49.643Z,0
2019-04-20T22:56:56.876Z,0
2019-04-20T22:59:12.697Z,0
2019-04-20T23:01:07.317Z,0
2019-04-20T23:02:33.948Z,0
2019-04-20T23:03:45.832Z,0
2019-04-20T23:04:57.535Z,0
2019-04-20T23:06:09.559Z,0
2019-04-20T23:07:23.136Z,0
2019-04-20T23:08:35.562Z,0
2019-04-20T23:10:08.781Z,0
2019-04-20T23:11:42.094Z,0
2019-04-20T23:13:05.403Z,0
2019-04-20T23:14:17.989Z,0
2019-04-20T23:15:31.957Z,0
2019-04-20T23:17:00.028Z,0
2019-04-20T23:18:14.229Z,0
2019-04-20T23:20:05.101Z,0
2019-04-20T23:21:28.239Z,0
2019-04-20T23:22:57.189Z,0
2019-04-20T23:24:23.583Z,0
2019-04-20T23:25:36.500Z,0
2019-04-20T23:26:55.675Z,0
2019-04-20T23:28:25.216Z,0
2019-04-20T23:29:49.064Z,0
2019-04-20T23:31:28.984Z,0
2019-04-20T23:32:42.301Z,0
2019-04-20T23:33:55.997Z,0
2019-04-20T23:35:28.574Z,0
2019-04-20T23:36:57.141Z,0
2019-04-20T23:38:28.781Z,0
2019-04-20T23:39:57.902Z,0
2019-04-20T23:41:10.649Z,0
2019-04-20T23:42:27.838Z,0
2019-04-20T23:43:47.722Z,0
2019-04-20T23:45:09.721Z,0
2019-04-20T23:46:37.427Z,0
2019-04-20T23:48:12.161Z,0
2019-04-20T23:50:40.526Z,0
2019-04-20T23:53:52.809Z,0
2019-04-20T23:55:21.720Z,0
2019-04-20T23:56:35.362Z,0
2019-04-20T23:58:04.872Z,0
2019-04-20T23:59:32.312Z,0
